Time;durP1;ratioP1;P1;durP2;ratioP2;P2;SDS_P1;SDS_P2;PMS_P1;PMS_P2;Temp;Humidity;BMP_temperature;BMP_pressure;BME280_temperature;BME280_humidity;BME280_pressure;Samples;Min_cycle;Max_cycle;Signal;HPM_P1;HPM_P2
2023/09/21 00:01:03;;;;;;;7.73;4.50;;;;;;;16.04;76.86;99976.78;4188851;28;20280;-65
2023/09/21 00:03:30;;;;;;;11.73;5.80;;;;;;;15.99;77.07;99971.91;4190854;28;25197;-65
2023/09/21 00:05:58;;;;;;;11.47;4.97;;;;;;;15.94;77.62;99974.38;4196396;28;20550;-66
2023/09/21 00:08:25;;;;;;;10.13;4.83;;;;;;;15.91;77.52;99978.34;4195201;28;21315;-67
2023/09/21 00:10:52;;;;;;;10.53;5.27;;;;;;;15.67;78.65;99974.91;4195092;28;20479;-67
2023/09/21 00:13:27;;;;;;;9.77;4.97;;;;;;;15.52;79.53;99974.09;4194463;28;20287;-67
2023/09/21 00:15:57;;;;;;;11.27;5.20;;;;;;;15.46;79.93;99964.78;4191557;28;20233;-66
2023/09/21 00:18:24;;;;;;;11.33;5.30;;;;;;;15.51;79.95;99973.25;4179219;28;20229;-67
2023/09/21 00:20:55;;;;;;;12.00;5.20;;;;;;;15.68;78.97;99962.94;4192196;28;20247;-67
2023/09/21 00:23:26;;;;;;;11.73;5.30;;;;;;;15.56;79.58;99966.38;4179494;28;20242;-67
2023/09/21 00:26:00;;;;;;;10.43;5.13;;;;;;;15.53;79.63;99965.69;4190177;28;20269;-70
2023/09/21 00:28:28;;;;;;;11.43;5.57;;;;;;;15.38;80.15;99962.16;4198448;28;20353;-66
2023/09/21 00:31:01;;;;;;;10.27;4.87;;;;;;;15.35;80.50;99962.56;4190879;28;20248;-67
2023/09/21 00:33:32;;;;;;;11.43;5.37;;;;;;;15.41;80.36;99952.78;4200874;28;20330;-67
2023/09/21 00:35:59;;;;;;;11.30;5.33;;;;;;;15.47;80.06;99957.47;4195380;28;20239;-65
2023/09/21 00:38:27;;;;;;;8.10;4.73;;;;;;;15.44;80.18;99966.00;4200190;28;20236;-68
2023/09/21 00:40:58;;;;;;;10.20;5.03;;;;;;;15.31;80.93;99967.56;4201550;28;21751;-65
2023/09/21 00:43:25;;;;;;;9.13;5.37;;;;;;;15.16;81.49;99959.38;4198636;28;22253;-68
2023/09/21 00:45:54;;;;;;;9.00;4.80;;;;;;;15.15;81.81;99956.84;4198854;28;20735;-67
2023/09/21 00:48:23;;;;;;;13.23;5.27;;;;;;;15.07;82.04;99954.22;4202568;28;22150;-69
2023/09/21 00:50:56;;;;;;;10.80;5.53;;;;;;;15.00;82.34;99957.69;4195822;28;20226;-65
2023/09/21 00:53:23;;;;;;;13.00;5.77;;;;;;;14.94;82.76;99946.69;4207251;28;20288;-67
2023/09/21 00:55:53;;;;;;;9.27;5.47;;;;;;;14.85;83.36;99959.56;4198652;28;20263;-66
2023/09/21 00:58:25;;;;;;;13.90;5.97;;;;;;;14.84;83.42;99955.16;4202205;28;20242;-67
2023/09/21 01:00:54;;;;;;;14.13;5.87;;;;;;;14.86;83.52;99955.81;4195784;28;20247;-67
2023/09/21 01:03:23;;;;;;;8.93;5.57;;;;;;;15.04;82.75;99959.00;4199870;28;20608;-67
2023/09/21 01:05:50;;;;;;;16.90;6.50;;;;;;;14.96;82.95;99952.81;4195629;28;20369;-68
2023/09/21 01:08:18;;;;;;;15.53;6.17;;;;;;;15.04;82.49;99959.00;4191653;28;20236;-67
2023/09/21 01:10:49;;;;;;;11.13;5.60;;;;;;;15.02;82.68;99961.09;4199748;28;20281;-65
2023/09/21 01:13:18;;;;;;;12.57;6.00;;;;;;;14.89;83.46;99963.59;4195758;28;20241;-68
2023/09/21 01:16:11;;;;;;;12.83;5.93;;;;;;;14.85;83.62;99959.56;4204157;28;20242;-69
2023/09/21 01:18:43;;;;;;;15.90;6.17;;;;;;;14.83;83.96;99965.22;4186414;28;20235;-65
2023/09/21 01:21:13;;;;;;;11.00;5.80;;;;;;;15.01;83.11;99964.84;4195221;28;20301;-69
2023/09/21 01:23:46;;;;;;;12.87;6.30;;;;;;;14.77;84.26;99960.50;4198452;28;21758;-66
2023/09/21 01:26:18;;;;;;;13.93;6.10;;;;;;;14.71;84.78;99959.38;4197055;28;21888;-69
2023/09/21 01:28:49;;;;;;;13.10;6.57;;;;;;;14.76;84.59;99964.28;4193940;28;20423;-67
2023/09/21 01:31:18;;;;;;;12.53;6.90;;;;;;;14.72;84.56;99965.66;4197229;28;22148;-68
2023/09/21 01:33:46;;;;;;;18.10;6.23;;;;;;;14.94;83.76;99963.91;4196645;28;20261;-67
2023/09/21 01:36:15;;;;;;;11.17;6.07;;;;;;;14.86;83.85;99966.72;4197972;28;20242;-64
2023/09/21 01:38:46;;;;;;;14.10;6.40;;;;;;;14.89;83.90;99972.63;4209105;28;20228;-66
2023/09/21 01:41:15;;;;;;;13.60;6.30;;;;;;;14.82;83.96;99962.66;4190371;28;20237;-66
2023/09/21 01:43:44;;;;;;;13.77;7.07;;;;;;;14.81;83.81;99963.69;4191498;28;20371;-66
2023/09/21 01:46:14;;;;;;;15.10;6.47;;;;;;;14.86;83.56;99966.72;4199311;28;21739;-65
2023/09/21 01:48:40;;;;;;;12.13;6.63;;;;;;;14.80;84.12;99956.56;4192590;28;21591;-67
2023/09/21 01:51:07;;;;;;;15.80;6.60;;;;;;;14.76;84.57;99955.25;4201245;28;20652;-67
2023/09/21 01:53:34;;;;;;;14.37;6.77;;;;;;;14.82;84.00;99954.47;4190552;28;20299;-68
2023/09/21 01:56:07;;;;;;;10.73;5.50;;;;;;;14.81;84.17;99950.94;4192984;28;20233;-65
2023/09/21 01:58:33;;;;;;;9.70;5.97;;;;;;;14.79;84.27;99947.53;4194414;28;20357;-66
2023/09/21 02:01:01;;;;;;;15.27;6.23;;;;;;;14.88;83.75;99954.59;4194802;28;20265;-66
2023/09/21 02:03:32;;;;;;;16.33;5.93;;;;;;;14.87;83.73;99954.78;4192819;28;20304;-68
2023/09/21 02:06:02;;;;;;;10.03;5.80;;;;;;;14.93;83.61;99955.91;4211510;28;20568;-68
2023/09/21 02:08:31;;;;;;;10.67;5.83;;;;;;;14.98;83.28;99946.13;4188025;28;20229;-68
2023/09/21 02:10:59;;;;;;;10.47;5.57;;;;;;;15.02;82.84;99949.31;4194470;28;20969;-66
2023/09/21 02:13:25;;;;;;;12.20;5.77;;;;;;;15.00;82.61;99945.94;4196292;28;20233;-67
2023/09/21 02:15:52;;;;;;;13.07;5.87;;;;;;;14.94;83.25;99958.44;4196330;28;22965;-69
2023/09/21 02:18:20;;;;;;;13.67;5.33;;;;;;;15.37;81.13;99950.41;4203040;28;20303;-68
2023/09/21 02:20:55;;;;;;;11.77;5.80;;;;;;;15.26;81.61;99947.34;4193423;28;20401;-66
2023/09/21 02:23:23;;;;;;;11.63;6.10;;;;;;;15.11;82.10;99950.06;4197835;28;20536;-67
2023/09/21 02:25:53;;;;;;;11.23;6.23;;;;;;;14.95;83.35;99941.06;4196393;28;20248;-66
2023/09/21 02:28:19;;;;;;;13.10;6.40;;;;;;;14.82;83.57;99947.19;4183562;28;22574;-67
2023/09/21 02:30:48;;;;;;;14.47;6.40;;;;;;;14.77;84.16;99951.47;4187139;28;20234;-67
2023/09/21 02:33:16;;;;;;;12.77;6.50;;;;;;;14.69;84.51;99949.72;4185557;28;20237;-67
2023/09/21 02:35:46;;;;;;;13.37;6.53;;;;;;;14.73;84.26;99949.13;4190455;28;20605;-66
2023/09/21 02:38:20;;;;;;;16.77;7.47;;;;;;;14.69;84.50;99953.25;4191533;28;20239;-67
2023/09/21 02:40:47;;;;;;;15.27;6.97;;;;;;;14.51;85.63;99948.13;4186423;28;20869;-66
2023/09/21 02:43:15;;;;;;;12.13;6.50;;;;;;;14.45;86.08;99942.56;4193232;28;24563;-66
2023/09/21 02:45:44;;;;;;;11.17;6.60;;;;;;;14.47;86.07;99944.06;4190442;28;20305;-65
2023/09/21 02:48:12;;;;;;;13.73;6.73;;;;;;;14.58;85.41;99942.78;4194048;28;22102;-67
2023/09/21 02:50:39;;;;;;;14.33;6.97;;;;;;;14.52;85.63;99938.94;4189977;28;20238;-67
2023/09/21 02:53:11;;;;;;;13.03;7.47;;;;;;;14.38;86.50;99929.72;4190338;28;20237;-66
2023/09/21 02:55:39;;;;;;;10.77;6.53;;;;;;;14.36;86.78;99934.47;4192445;28;20286;-68
2023/09/21 02:58:10;;;;;;;13.53;7.00;;;;;;;14.38;86.65;99931.59;4191547;28;20275;-67
2023/09/21 03:00:40;;;;;;;13.53;6.83;;;;;;;14.45;86.15;99932.53;4191910;28;26113;-67
2023/09/21 03:03:07;;;;;;;13.97;6.73;;;;;;;14.46;86.11;99928.78;4191067;28;20322;-70
2023/09/21 03:05:34;;;;;;;15.07;6.63;;;;;;;14.43;86.20;99932.72;4185210;28;20332;-69
2023/09/21 03:08:13;;;;;;;17.00;6.97;;;;;;;14.33;86.79;99921.25;4188907;28;20233;-67
2023/09/21 03:10:53;;;;;;;13.47;6.80;;;;;;;14.38;86.55;99926.16;4189572;28;20295;-66
2023/09/21 03:13:21;;;;;;;12.40;6.80;;;;;;;14.40;86.63;99922.22;4189734;28;20298;-69
2023/09/21 03:15:58;;;;;;;12.30;6.77;;;;;;;14.42;86.67;99919.28;4187178;28;21318;-67
2023/09/21 03:18:25;;;;;;;14.10;6.73;;;;;;;14.32;87.56;99915.97;4198366;28;20254;-68
2023/09/21 03:20:53;;;;;;;12.47;6.90;;;;;;;14.33;87.11;99907.63;4185901;28;20249;-71
2023/09/21 03:23:22;;;;;;;18.03;6.60;;;;;;;14.26;87.76;99914.84;4190013;28;20246;-66
2023/09/21 03:25:50;;;;;;;12.67;6.50;;;;;;;14.40;86.86;99910.44;4197814;28;21744;-68
2023/09/21 03:28:19;;;;;;;14.53;6.53;;;;;;;14.37;87.04;99911.66;4198278;28;20264;-69
2023/09/21 03:30:48;;;;;;;15.40;7.10;;;;;;;14.43;86.68;99910.09;4193891;28;21168;-66
2023/09/21 03:33:16;;;;;;;13.43;6.07;;;;;;;14.39;86.89;99917.78;4196511;28;22732;-66
2023/09/21 03:35:44;;;;;;;16.10;6.47;;;;;;;14.38;86.95;99916.09;4187512;28;23049;-67
2023/09/21 03:38:11;;;;;;;13.67;6.33;;;;;;;14.38;87.03;99913.38;4189759;28;20543;-68
2023/09/21 03:40:40;;;;;;;12.93;6.57;;;;;;;14.33;87.24;99910.38;4193721;28;20241;-66
2023/09/21 03:43:14;;;;;;;9.53;5.97;;;;;;;14.41;86.66;99907.56;4198766;28;20589;-65
2023/09/21 03:45:44;;;;;;;13.60;6.67;;;;;;;14.34;87.25;99908.47;4189523;28;20360;-69
2023/09/21 03:48:12;;;;;;;14.73;7.23;;;;;;;14.32;87.46;99915.97;4184224;28;20247;-66
2023/09/21 03:50:41;;;;;;;15.93;7.50;;;;;;;14.28;87.54;99912.78;4194158;28;21174;-67
2023/09/21 03:53:11;;;;;;;14.20;7.60;;;;;;;14.37;87.00;99908.94;4189998;28;21847;-66
2023/09/21 03:55:39;;;;;;;15.67;7.80;;;;;;;14.20;88.01;99907.44;4190394;28;20596;-68
2023/09/21 03:58:07;;;;;;;12.40;8.03;;;;;;;14.16;88.30;99915.09;4190272;28;20233;-68
2023/09/21 04:03:09;;;;;;;13.97;7.63;;;;;;;14.18;87.98;99898.59;4189552;28;21249;-69
2023/09/21 04:05:39;;;;;;;18.83;8.67;;;;;;;14.14;88.41;99902.69;4190573;28;20996;-67
2023/09/21 04:08:07;;;;;;;14.03;7.90;;;;;;;14.10;88.71;99894.91;4189165;28;20229;-68
2023/09/21 04:10:33;;;;;;;13.83;8.13;;;;;;;14.10;88.82;99894.91;4189730;28;20300;-66
2023/09/21 04:13:01;;;;;;;18.17;8.50;;;;;;;14.03;89.35;99893.97;4188139;28;20455;-68
2023/09/21 04:15:30;;;;;;;21.70;9.00;;;;;;;14.00;89.56;99904.38;4191947;28;20307;-66
2023/09/21 04:17:57;;;;;;;16.77;8.17;;;;;;;14.02;89.78;99896.84;4189492;28;27773;-67
2023/09/21 04:20:31;;;;;;;19.70;9.27;;;;;;;14.00;89.62;99890.75;4191675;28;21138;-70
2023/09/21 04:23:00;;;;;;;19.97;8.60;;;;;;;14.01;89.63;99890.56;4185652;28;20249;-66
2023/09/21 04:25:27;;;;;;;19.07;8.80;;;;;;;14.05;89.51;99891.88;4192752;28;20423;-69
2023/09/21 04:27:54;;;;;;;15.07;8.53;;;;;;;14.00;89.58;99891.59;4190196;28;22760;-66
2023/09/21 04:30:24;;;;;;;21.27;9.23;;;;;;;13.95;90.26;99894.88;4188680;28;20271;-70
2023/09/21 04:32:53;;;;;;;20.03;8.57;;;;;;;14.00;90.17;99896.22;4192253;28;20245;-68
2023/09/21 04:35:26;;;;;;;19.33;8.70;;;;;;;14.03;89.99;99891.25;4198389;28;21376;-67
2023/09/21 04:37:56;;;;;;;19.80;8.90;;;;;;;14.06;89.80;99896.31;4184849;28;20240;-70
2023/09/21 04:40:24;;;;;;;19.80;8.60;;;;;;;14.08;89.68;99890.69;4166043;28;20873;-69
2023/09/21 04:42:51;;;;;;;19.20;8.37;;;;;;;14.15;89.46;99890.78;4212755;28;26137;-69
2023/09/21 04:45:21;;;;;;;20.80;8.60;;;;;;;14.10;89.64;99883.16;4195765;28;20244;-71
2023/09/21 04:47:53;;;;;;;19.00;8.13;;;;;;;14.17;89.55;99881.41;4173336;28;20296;-73
2023/09/21 04:50:26;;;;;;;15.67;8.63;;;;;;;14.16;89.27;99879.72;4192878;28;20395;-72
2023/09/21 04:52:52;;;;;;;21.23;8.57;;;;;;;14.23;89.10;99883.41;4198710;28;20285;-74
2023/09/21 04:55:20;;;;;;;19.50;8.77;;;;;;;14.17;89.58;99891.47;4188442;28;20332;-71
2023/09/21 04:57:47;;;;;;;16.80;8.63;;;;;;;14.18;89.56;99885.81;4204400;28;20341;-70
2023/09/21 05:00:15;;;;;;;15.43;8.17;;;;;;;14.33;88.76;99883.13;4190942;28;20486;-71
2023/09/21 05:02:44;;;;;;;14.00;8.00;;;;;;;14.38;88.37;99879.84;4184774;28;20239;-71
2023/09/21 05:05:14;;;;;;;18.37;8.27;;;;;;;14.36;88.74;99874.56;4190959;28;21740;-75
2023/09/21 05:07:42;;;;;;;15.10;7.90;;;;;;;14.39;88.58;99881.53;4184885;28;21787;-73
2023/09/21 05:10:11;;;;;;;12.63;7.53;;;;;;;14.46;88.38;99879.78;4197115;28;21740;-72
2023/09/21 05:12:39;;;;;;;18.67;8.80;;;;;;;14.43;88.54;99883.69;4190813;28;20242;-72
2023/09/21 05:15:07;;;;;;;20.97;8.70;;;;;;;14.52;88.16;99878.16;4188652;28;23126;-70
2023/09/21 05:17:36;;;;;;;21.73;8.43;;;;;;;14.53;87.85;99869.81;4190204;28;21280;-71
2023/09/21 05:20:06;;;;;;;16.47;7.70;;;;;;;14.58;87.76;99869.22;4180790;28;20268;-70
2023/09/21 05:22:34;;;;;;;17.60;8.10;;;;;;;14.54;87.63;99868.75;4181166;28;20832;-73
2023/09/21 05:25:03;;;;;;;18.40;8.17;;;;;;;14.66;87.26;99880.06;4189486;28;20239;-71
2023/09/21 05:27:30;;;;;;;14.83;8.17;;;;;;;14.68;87.25;99874.47;4198625;28;20723;-72
2023/09/21 05:29:58;;;;;;;15.30;7.87;;;;;;;14.76;87.05;99878.94;4193820;28;20357;-72
2023/09/21 05:32:26;;;;;;;18.07;7.40;;;;;;;14.91;86.24;99874.34;4174561;28;21659;-72
2023/09/21 05:34:53;;;;;;;14.03;7.20;;;;;;;14.92;86.35;99875.19;4191173;28;20371;-69
2023/09/21 05:37:20;;;;;;;13.03;6.53;;;;;;;14.97;86.21;99868.13;4188900;28;22511;-71
2023/09/21 05:39:48;;;;;;;22.97;7.23;;;;;;;15.03;86.54;99874.69;4190820;28;20238;-77
2023/09/21 05:42:23;;;;;;;13.63;6.57;;;;;;;15.08;86.37;99871.41;4184594;28;20233;-72
2023/09/21 05:44:51;;;;;;;22.27;7.53;;;;;;;15.20;86.13;99865.28;4189636;28;20242;-72
2023/09/21 05:47:19;;;;;;;10.97;6.60;;;;;;;15.24;86.28;99873.03;4205290;28;20233;-69
2023/09/21 05:49:45;;;;;;;17.27;7.13;;;;;;;15.36;85.82;99868.81;4189427;28;22886;-74
2023/09/21 05:52:13;;;;;;;13.10;6.93;;;;;;;15.48;85.42;99863.69;4203377;28;20285;-72
2023/09/21 05:54:42;;;;;;;12.73;7.00;;;;;;;15.62;85.23;99862.78;4182410;28;20232;-74
2023/09/21 05:57:11;;;;;;;11.63;6.70;;;;;;;15.72;85.01;99881.53;4191656;28;20422;-73
2023/09/21 05:59:38;;;;;;;16.20;6.77;;;;;;;15.82;84.67;99871.13;4183038;28;20233;-72
2023/09/21 06:02:07;;;;;;;15.83;6.50;;;;;;;15.86;84.53;99874.38;4198139;28;20241;-72
2023/09/21 06:04:34;;;;;;;12.90;6.47;;;;;;;16.02;84.10;99872.38;4200304;28;20232;-74
2023/09/21 06:07:04;;;;;;;17.00;5.97;;;;;;;16.05;84.26;99870.09;4190887;28;21198;-73
2023/09/21 06:09:33;;;;;;;12.53;6.53;;;;;;;16.20;84.26;99875.47;4211510;28;21193;-74
2023/09/21 06:12:00;;;;;;;10.37;6.53;;;;;;;16.37;83.15;99876.00;4202829;28;20739;-73
2023/09/21 06:14:27;;;;;;;23.40;7.03;;;;;;;16.37;83.54;99878.75;4205115;28;20233;-72
2023/09/21 06:16:53;;;;;;;18.10;6.80;;;;;;;16.42;83.58;99876.28;4177437;28;22213;-75
2023/09/21 06:19:20;;;;;;;16.27;6.63;;;;;;;16.64;82.74;99885.25;4210172;28;20244;-75
2023/09/21 06:21:50;;;;;;;17.83;6.73;;;;;;;16.87;81.74;99878.63;4192217;28;20248;-72
2023/09/21 06:24:17;;;;;;;16.93;6.97;;;;;;;16.97;81.22;99880.19;4214125;28;20308;-74
2023/09/21 06:26:45;;;;;;;16.23;7.13;;;;;;;17.16;80.13;99884.06;4189107;28;20295;-72
2023/09/21 06:29:15;;;;;;;15.53;6.57;;;;;;;17.39;79.66;99879.09;4194411;28;20233;-73
2023/09/21 06:31:42;;;;;;;14.03;6.80;;;;;;;17.33;80.11;99879.91;4191213;28;20460;-73
2023/09/21 06:34:09;;;;;;;11.53;6.43;;;;;;;17.46;79.01;99878.25;4184057;28;21115;-74
2023/09/21 06:36:38;;;;;;;16.03;6.73;;;;;;;17.62;78.15;99883.34;4188592;28;20246;-74
2023/09/21 06:39:05;;;;;;;19.03;7.03;;;;;;;17.71;77.56;99878.53;4194763;28;21310;-74
2023/09/21 06:41:32;;;;;;;16.60;6.03;;;;;;;17.75;77.19;99877.03;4198856;28;20313;-72
2023/09/21 06:43:59;;;;;;;14.00;6.40;;;;;;;17.84;76.99;99883.19;4176150;28;20253;-73
2023/09/21 06:46:26;;;;;;;12.30;6.47;;;;;;;18.00;76.52;99884.69;4188469;28;20248;-73
2023/09/21 06:48:53;;;;;;;14.27;6.30;;;;;;;18.12;75.94;99891.22;4195914;28;20580;-73
2023/09/21 06:51:23;;;;;;;16.57;6.27;;;;;;;18.16;75.56;99884.28;4196173;28;20880;-72
2023/09/21 06:53:49;;;;;;;16.90;6.07;;;;;;;18.16;75.57;99887.00;4194273;28;20277;-73
2023/09/21 06:56:21;;;;;;;16.43;6.40;;;;;;;18.17;76.18;99882.34;4203009;28;21734;-70
2023/09/21 06:58:48;;;;;;;17.17;6.87;;;;;;;18.19;76.51;99881.13;4219782;28;20411;-75
2023/09/21 07:01:15;;;;;;;16.57;7.00;;;;;;;18.22;76.41;99882.59;4183716;28;20450;-73
2023/09/21 07:03:44;;;;;;;22.47;7.07;;;;;;;18.38;75.53;99875.81;4194227;28;20333;-74
2023/09/21 07:06:12;;;;;;;17.67;6.70;;;;;;;18.43;75.83;99884.22;4191237;28;20237;-75
2023/09/21 07:09:04;;;;;;;15.03;6.43;;;;;;;18.67;75.26;99884.63;4216182;28;20400;-69
2023/09/21 07:11:33;;;;;;;12.63;6.13;;;;;;;18.80;75.23;99881.88;4200321;28;21305;-68
2023/09/21 07:14:00;;;;;;;10.93;6.00;;;;;;;19.09;73.13;99882.44;4210276;28;20364;-70
2023/09/21 07:16:26;;;;;;;14.90;5.80;;;;;;;19.73;70.91;99882.50;4201818;28;21777;-70
2023/09/21 07:18:53;;;;;;;17.23;6.07;;;;;;;21.49;64.97;99874.19;4190394;28;20656;-70
2023/09/21 07:21:20;;;;;;;12.60;5.60;;;;;;;23.42;58.49;99877.38;4182066;28;20245;-67
2023/09/21 07:23:49;;;;;;;11.57;5.60;;;;;;;24.71;53.68;99881.50;4188401;28;20277;-69
2023/09/21 07:26:17;;;;;;;14.17;6.50;;;;;;;25.55;51.63;99878.69;4197125;28;20601;-70
2023/09/21 07:28:45;;;;;;;10.60;5.90;;;;;;;25.63;51.05;99880.97;4211631;28;26245;-70
2023/09/21 07:31:13;;;;;;;12.13;5.87;;;;;;;26.88;47.81;99864.25;4214453;28;20232;-72
2023/09/21 07:33:40;;;;;;;13.87;5.00;;;;;;;28.16;44.75;99874.03;4201049;28;24991;-69
2023/09/21 07:36:08;;;;;;;14.73;5.10;;;;;;;28.87;42.97;99886.19;4194506;28;20322;-70
2023/09/21 07:38:35;;;;;;;10.95;5.13;;;;;;;29.62;41.04;99872.47;4198902;28;20232;-70
2023/09/21 07:41:03;;;;;;;16.63;5.25;;;;;;;29.56;41.15;99871.69;4182620;28;21604;-70
2023/09/21 07:43:30;;;;;;;9.27;4.97;;;;;;;29.31;41.15;99870.72;4189619;28;20443;-69
2023/09/21 07:45:57;;;;;;;16.67;5.45;;;;;;;29.54;40.87;99865.56;4191406;28;22028;-70
2023/09/21 07:48:26;;;;;;;7.40;4.82;;;;;;;30.21;39.72;99870.66;4214586;28;20780;-69
2023/09/21 07:50:56;;;;;;;11.65;5.00;;;;;;;31.03;37.93;99865.34;4205932;28;22600;-70
2023/09/21 07:53:23;;;;;;;10.18;5.05;;;;;;;31.68;36.54;99864.78;4219759;28;20256;-68
2023/09/21 07:56:10;;;;;;;15.85;4.90;;;;;;;30.94;37.15;99860.41;4187727;28;20295;-68
2023/09/21 07:58:38;;;;;;;11.32;4.88;;;;;;;30.00;39.17;99858.81;4195329;28;20672;-69
2023/09/21 08:01:05;;;;;;;8.98;4.18;;;;;;;30.93;37.07;99864.31;4213713;28;20595;-68
2023/09/21 08:03:32;;;;;;;11.38;4.22;;;;;;;30.56;38.44;99857.50;4234866;28;20358;-70
2023/09/21 08:06:01;;;;;;;12.20;4.72;;;;;;;30.72;37.48;99857.31;4216827;28;20569;-69
2023/09/21 08:08:28;;;;;;;11.13;4.20;;;;;;;31.96;35.47;99847.28;4208081;28;20414;-70
2023/09/21 08:10:56;;;;;;;14.07;4.30;;;;;;;30.10;37.79;99860.72;4217549;28;23042;-69
2023/09/21 08:13:25;;;;;;;10.93;4.40;;;;;;;30.39;37.65;99851.50;4209542;28;20316;-72
2023/09/21 08:15:55;;;;;;;17.17;4.38;;;;;;;30.74;36.82;99847.50;4193068;28;20233;-69
2023/09/21 08:18:22;;;;;;;8.88;4.30;;;;;;;30.89;36.92;99845.69;4213495;28;20233;-71
2023/09/21 08:20:52;;;;;;;10.07;4.00;;;;;;;31.57;35.05;99844.50;4204852;28;20272;-69
2023/09/21 08:23:21;;;;;;;8.95;4.15;;;;;;;31.24;35.53;99844.41;4193095;28;20228;-69
2023/09/21 08:25:48;;;;;;;10.55;3.70;;;;;;;30.15;37.21;99852.28;4197951;28;20267;-71
2023/09/21 08:28:15;;;;;;;10.43;4.25;;;;;;;28.70;40.67;99850.31;4198901;28;20659;-68
2023/09/21 08:30:42;;;;;;;9.68;3.63;;;;;;;27.98;42.18;99848.41;4190105;28;20238;-71
2023/09/21 08:33:11;;;;;;;15.02;4.15;;;;;;;26.93;44.86;99835.66;4189772;28;22836;-69
2023/09/21 08:35:40;;;;;;;8.20;3.90;;;;;;;27.00;44.78;99839.03;4198464;28;21095;-70
2023/09/21 08:38:07;;;;;;;10.47;3.93;;;;;;;26.03;46.95;99840.88;4196595;28;20715;-68
2023/09/21 08:40:34;;;;;;;11.20;4.13;;;;;;;26.06;47.57;99836.72;4205326;28;20234;-67
2023/09/21 08:43:04;;;;;;;8.77;3.40;;;;;;;26.16;45.94;99844.31;4192345;28;20296;-67
2023/09/21 08:45:32;;;;;;;7.17;3.60;;;;;;;26.62;45.90;99836.31;4197487;28;20432;-70
2023/09/21 08:48:02;;;;;;;12.40;3.60;;;;;;;26.54;45.85;99834.88;4212723;28;20237;-54
2023/09/21 08:50:29;;;;;;;6.53;3.67;;;;;;;26.33;46.34;99845.00;4197998;28;25337;-69
2023/09/21 08:52:58;;;;;;;7.73;3.67;;;;;;;26.51;45.83;99835.41;4190226;28;20604;-70
2023/09/21 08:55:26;;;;;;;11.80;3.43;;;;;;;26.58;46.05;99832.41;4208993;28;20443;-71
2023/09/21 08:57:53;;;;;;;8.20;3.30;;;;;;;26.77;45.54;99831.97;4198358;28;20260;-70
2023/09/21 09:00:26;;;;;;;7.93;3.57;;;;;;;26.33;47.43;99841.38;4208517;28;20235;-48
2023/09/21 09:02:54;;;;;;;9.13;3.60;;;;;;;26.00;47.95;99840.56;4226518;28;20269;-41
2023/09/21 09:05:21;;;;;;;21.13;3.97;;;;;;;25.63;49.13;99831.94;4222529;28;20274;-70
2023/09/21 09:07:48;;;;;;;8.83;3.97;;;;;;;25.76;48.72;99827.88;4179169;28;20283;-72
2023/09/21 09:10:15;;;;;;;8.67;3.70;;;;;;;25.99;49.07;99825.84;4190144;28;20241;-71
2023/09/21 09:12:46;;;;;;;11.67;4.37;;;;;;;25.76;48.79;99833.44;4183936;28;20422;-69
2023/09/21 09:15:14;;;;;;;15.50;3.90;;;;;;;25.96;49.06;99831.94;4173579;28;20232;-69
2023/09/21 09:17:43;;;;;;;9.63;3.37;;;;;;;26.18;46.65;99834.63;4193258;28;20241;-68
2023/09/21 09:20:12;;;;;;;8.47;3.53;;;;;;;26.09;46.68;99836.25;4191463;28;20231;-67
2023/09/21 09:22:39;;;;;;;10.47;3.33;;;;;;;25.45;48.02;99824.81;4202291;28;20233;-71
2023/09/21 09:25:09;;;;;;;13.20;3.57;;;;;;;25.36;48.42;99828.28;4188862;28;20281;-70
2023/09/21 09:27:36;;;;;;;8.40;3.60;;;;;;;25.49;48.43;99835.38;4214253;28;21075;-74
2023/09/21 09:30:08;;;;;;;9.10;3.73;;;;;;;25.58;48.97;99826.34;4213119;28;20296;-76
2023/09/21 09:32:40;;;;;;;7.57;3.70;;;;;;;25.44;48.88;99827.84;4187863;28;20537;-71
2023/09/21 09:35:12;;;;;;;7.70;3.27;;;;;;;25.51;48.46;99824.88;4189630;28;20319;-70
2023/09/21 09:37:42;;;;;;;9.43;3.03;;;;;;;25.21;49.12;99810.41;4197534;28;20283;-69
2023/09/21 09:40:14;;;;;;;10.40;3.33;;;;;;;25.23;50.16;99810.13;4196996;28;22359;-71
2023/09/21 09:42:43;;;;;;;5.83;3.30;;;;;;;25.03;50.15;99811.59;4191290;28;20248;-72
2023/09/21 09:45:38;;;;;;;6.60;3.37;;;;;;;24.95;50.19;99804.59;4186991;28;22018;-70
2023/09/21 09:48:11;;;;;;;14.10;3.10;;;;;;;25.20;49.25;99807.91;4199661;28;20241;-71
2023/09/21 09:50:41;;;;;;;7.53;2.83;;;;;;;24.90;49.46;99804.50;4207153;28;20308;-72
2023/09/21 09:53:11;;;;;;;7.80;3.07;;;;;;;25.10;49.24;99806.69;4183034;28;21062;-70
2023/09/21 09:55:42;;;;;;;15.93;3.67;;;;;;;25.04;50.23;99801.38;4229714;28;20435;-72
2023/09/21 09:58:10;;;;;;;11.20;3.10;;;;;;;25.09;49.66;99791.16;4206491;28;20991;-70
2023/09/21 10:00:41;;;;;;;6.53;2.80;;;;;;;24.86;50.55;99796.97;4220159;28;20255;-72
2023/09/21 10:03:11;;;;;;;5.93;2.83;;;;;;;25.00;50.44;99792.75;4204035;28;20300;-70
2023/09/21 10:06:05;;;;;;;10.73;3.17;;;;;;;25.16;50.38;99797.34;4214236;28;20230;-71
2023/09/21 10:08:32;;;;;;;7.77;3.10;;;;;;;25.38;48.90;99779.84;4205690;28;21603;-73
2023/09/21 10:11:01;;;;;;;4.57;2.53;;;;;;;25.39;48.77;99787.06;4198730;28;21105;-72
2023/09/21 10:13:30;;;;;;;7.40;2.70;;;;;;;25.36;50.25;99778.41;4233480;28;20672;-61
2023/09/21 10:16:05;;;;;;;10.77;2.70;;;;;;;25.28;50.65;99775.03;4190392;28;20636;-69
2023/09/21 10:18:43;;;;;;;6.03;2.27;;;;;;;25.34;50.23;99764.84;4199536;28;20293;-69
2023/09/21 10:21:24;;;;;;;8.80;2.63;;;;;;;25.36;49.62;99770.09;4185820;28;22081;-71
2023/09/21 10:24:13;;;;;;;7.60;2.47;;;;;;;25.44;49.59;99762.22;4186788;28;20326;-70
2023/09/21 10:26:46;;;;;;;6.53;2.97;;;;;;;25.53;48.75;99761.72;4197092;28;20243;-68
2023/09/21 10:29:13;;;;;;;7.27;2.30;;;;;;;25.71;48.82;99752.19;4191735;28;20244;-68
2023/09/21 10:31:45;;;;;;;6.27;2.80;;;;;;;25.70;48.19;99754.09;4191143;28;20242;-68
2023/09/21 10:34:14;;;;;;;9.20;2.93;;;;;;;25.61;48.97;99756.53;4196431;28;20428;-68
2023/09/21 10:36:43;;;;;;;7.10;2.90;;;;;;;25.65;48.71;99750.44;4205617;28;20318;-69
2023/09/21 10:39:10;;;;;;;4.10;2.33;;;;;;;25.68;48.43;99756.28;4195203;28;21862;-70
2023/09/21 10:41:45;;;;;;;8.20;2.80;;;;;;;25.75;48.85;99754.16;4194163;28;20862;-69
2023/09/21 10:44:51;;;;;;;10.03;2.80;;;;;;;25.95;47.60;99753.44;4177496;28;20232;-67
2023/09/21 10:47:35;;;;;;;10.20;2.90;;;;;;;26.02;47.72;99747.69;4209265;28;20529;-69
2023/09/21 10:50:15;;;;;;;8.03;2.10;;;;;;;26.04;48.67;99741.84;4182528;28;21195;-68
2023/09/21 10:52:45;;;;;;;4.33;1.83;;;;;;;25.84;46.91;99735.09;4197239;28;20236;-68
2023/09/21 10:55:15;;;;;;;4.70;2.33;;;;;;;25.86;47.39;99743.97;4189793;28;20854;-68
2023/09/21 10:57:43;;;;;;;13.02;3.00;;;;;;;26.03;47.34;99727.16;4190891;28;20266;-69
2023/09/21 11:00:17;;;;;;;5.50;2.57;;;;;;;26.00;47.39;99719.38;4189430;28;20470;-70
2023/09/21 11:02:49;;;;;;;4.07;2.23;;;;;;;25.80;48.41;99714.53;4184402;28;20229;-68
2023/09/21 11:05:19;;;;;;;6.83;2.80;;;;;;;25.93;47.84;99718.78;4186425;28;22930;-50
2023/09/21 11:07:48;;;;;;;4.47;2.30;;;;;;;25.93;48.38;99710.44;4182062;28;20302;-69
2023/09/21 11:10:16;;;;;;;9.40;2.43;;;;;;;25.93;48.28;99710.44;4196911;28;20706;-70
2023/09/21 11:12:44;;;;;;;6.50;2.47;;;;;;;26.02;48.91;99711.63;4181850;28;20250;-71
2023/09/21 11:15:14;;;;;;;7.37;2.53;;;;;;;26.27;47.57;99712.91;4190477;28;22466;-71
2023/09/21 11:17:46;;;;;;;6.43;2.50;;;;;;;25.95;48.30;99713.81;4210740;28;25430;-70
2023/09/21 11:20:17;;;;;;;4.67;2.50;;;;;;;25.97;48.55;99721.84;4192779;28;20723;-71
2023/09/21 11:22:46;;;;;;;5.77;2.40;;;;;;;26.24;47.85;99711.50;4191102;28;20621;-71
2023/09/21 11:25:16;;;;;;;5.00;2.37;;;;;;;26.21;48.48;99712.03;4182832;28;20245;-70
2023/09/21 11:27:43;;;;;;;9.50;2.50;;;;;;;26.31;46.97;99696.56;4179994;28;25928;-70
2023/09/21 11:30:13;;;;;;;8.47;2.97;;;;;;;26.47;46.19;99692.75;4184583;28;21057;-70
2023/09/21 11:32:47;;;;;;;6.63;2.83;;;;;;;26.43;46.92;99702.69;4175287;28;20554;-71
2023/09/21 11:35:17;;;;;;;9.10;2.70;;;;;;;26.36;47.29;99702.13;4190632;28;22283;-70
2023/09/21 11:37:45;;;;;;;7.07;2.40;;;;;;;26.40;47.15;99703.22;4186727;28;20236;-71
2023/09/21 11:40:13;;;;;;;6.57;2.40;;;;;;;26.44;46.41;99684.13;4193939;28;20629;-70